CheckWX is a tool to help pilots better visualize weather data.  It is not intended as a substitute for an official pre-flight weather briefing.

05:25:23 UTC

VIDP METAR
Indira Gandhi International Airport
New Delhi, India
Current

25 mins ago

VIDP 020500Z 09005KT 4000 HZ FEW100 30/18 Q1008 NOSIG
Observed
Jun-2 @ 05:00 UTC
Wind
  • 090° at 5 KTS
Visibility
4007 meters
Flight Rules
IFR
Conditions
Haze
Cloud Levels
  • Few at 10,000' AGL
Temperature
30°C / 86°F
Dewpoint
18°C / 64°F
Humidity
49%
Altimeter
29.76" Hg
Pressure
1007.92 hPa
Previous

55 mins ago

VIDP 020430Z 08005KT 4000 HZ SCT100 29/18 Q1008 NOSIG
Observed
Jun-2 @ 04:30 UTC
Wind
  • 080° at 5 KTS
Visibility
4007 meters
Flight Rules
IFR
Conditions
Haze
Cloud Levels
  • Scattered at 10,000' AGL
Temperature
29°C / 84°F
Dewpoint
18°C / 64°F
Humidity
51%
Altimeter
29.76" Hg
Pressure
1007.92 hPa
Previous

1 hour ago

VIDP 020400Z 05007KT 3500 HZ FEW035 SCT100 28/18 Q1008 NOSIG
Observed
Jun-2 @ 04:00 UTC
Wind
  • 050° at 7 KTS
Visibility
3492 meters
Flight Rules
IFR
Conditions
Haze
Cloud Levels
  • Few at 3,500' AGL
  • Scattered at 10,000' AGL
Temperature
28°C / 82°F
Dewpoint
18°C / 64°F
Humidity
55%
Altimeter
29.76" Hg
Pressure
1007.92 hPa